createdAt,value
2022-12-08T00:01:32.232Z,16.30
2022-12-08T00:04:05.977Z,11.40
2022-12-08T00:07:01.528Z,14.60
2022-12-08T00:09:38.567Z,16.40
2022-12-08T00:12:18.256Z,18.77
2022-12-08T00:14:47.932Z,14.57
2022-12-08T00:17:19.200Z,13.83
2022-12-08T01:31:36.167Z,23.93
2022-12-08T01:34:03.276Z,31.20
2022-12-08T01:36:37.441Z,29.43
2022-12-08T01:39:11.472Z,30.47
2022-12-08T01:41:39.718Z,34.07
2022-12-08T01:44:13.997Z,29.20
2022-12-08T01:46:49.085Z,30.27
2022-12-08T01:49:35.951Z,28.37
2022-12-08T01:52:17.334Z,27.67
2022-12-08T01:54:52.884Z,31.10
2022-12-08T01:57:29.838Z,26.70
2022-12-08T02:00:10.349Z,28.97
2022-12-08T02:03:09.643Z,24.63
2022-12-08T02:05:39.389Z,26.23
2022-12-08T02:08:11.702Z,29.67
2022-12-08T02:10:41.643Z,28.10
2022-12-08T02:13:15.496Z,23.57
2022-12-08T02:15:58.304Z,24.20
2022-12-08T02:18:57.660Z,28.80
2022-12-08T02:21:42.250Z,24.63
2022-12-08T02:24:22.568Z,26.43
2022-12-08T02:27:14.214Z,24.30
2022-12-08T02:30:08.763Z,22.67
2022-12-08T02:32:57.724Z,23.17
2022-12-08T02:35:48.512Z,22.23
2022-12-08T02:38:44.088Z,23.33
2022-12-08T02:42:10.909Z,22.23
2022-12-08T02:45:07.207Z,28.10
2022-12-08T02:47:35.792Z,22.07
2022-12-08T02:50:04.039Z,23.43
2022-12-08T02:52:31.840Z,24.07
2022-12-08T02:55:06.973Z,25.10
2022-12-08T02:57:53.987Z,25.57
2022-12-08T03:00:23.703Z,25.73
2022-12-08T03:03:03.387Z,26.43
2022-12-08T03:05:55.181Z,26.00
2022-12-08T03:08:39.887Z,25.80
2022-12-08T03:11:12.068Z,24.23
2022-12-08T03:13:45.586Z,27.60
2022-12-08T03:16:21.413Z,25.07
2022-12-08T03:18:53.527Z,23.93
2022-12-08T03:21:23.731Z,23.23
2022-12-08T03:23:53.186Z,24.60
2022-12-08T03:26:41.499Z,24.97
2022-12-08T03:29:09.903Z,28.43
2022-12-08T03:31:44.572Z,22.37
2022-12-08T03:34:14.568Z,22.30
2022-12-08T03:36:42.275Z,24.40
2022-12-08T03:39:09.537Z,23.20
2022-12-08T03:41:37.017Z,22.10
2022-12-08T03:44:04.700Z,22.83
2022-12-08T03:46:32.322Z,20.30
2022-12-08T03:48:59.641Z,21.17
2022-12-08T03:51:27.542Z,22.40
2022-12-08T03:53:54.639Z,23.60
2022-12-08T03:56:29.286Z,21.27
2022-12-08T03:58:56.597Z,17.70
2022-12-08T04:01:24.839Z,21.33
2022-12-08T04:03:52.715Z,17.50
2022-12-08T04:06:21.674Z,19.00
2022-12-08T04:08:49.877Z,17.20
2022-12-08T04:11:17.588Z,18.73
2022-12-08T04:13:45.363Z,17.97
2022-12-08T04:16:21.410Z,17.27
2022-12-08T04:18:49.130Z,20.53
2022-12-08T04:21:16.442Z,18.07
2022-12-08T04:23:44.190Z,17.37
2022-12-08T04:26:11.304Z,21.43
2022-12-08T04:28:38.622Z,18.03
2022-12-08T04:31:06.532Z,21.83
2022-12-08T04:33:35.619Z,22.27
2022-12-08T04:36:04.218Z,22.88
2022-12-08T05:10:38.045Z,15.87
2022-12-08T05:13:06.100Z,17.00
2022-12-08T05:15:33.504Z,15.83
2022-12-08T05:18:00.532Z,17.10
2022-12-08T05:20:29.077Z,17.57
2022-12-08T05:22:55.992Z,17.60
2022-12-08T05:25:22.942Z,18.47
2022-12-08T05:27:50.377Z,16.50
2022-12-08T05:30:17.339Z,19.67
2022-12-08T05:32:44.416Z,15.33
2022-12-08T05:35:11.369Z,16.13
2022-12-08T05:37:38.373Z,14.93
2022-12-08T05:40:06.539Z,15.50
2022-12-08T05:42:33.773Z,15.63
2022-12-08T05:45:00.876Z,13.97
2022-12-08T05:47:30.741Z,15.27
2022-12-08T05:50:01.661Z,15.53
2022-12-08T05:52:29.987Z,15.03
2022-12-08T05:54:56.960Z,14.60
2022-12-08T05:57:23.944Z,14.67
2022-12-08T05:59:50.844Z,13.23
2022-12-08T06:02:18.033Z,14.27
2022-12-08T06:04:45.665Z,14.70
2022-12-08T06:07:16.061Z,15.93
2022-12-08T06:09:43.761Z,15.37
2022-12-08T06:12:13.625Z,16.97
2022-12-08T06:14:40.809Z,15.13
2022-12-08T06:17:08.315Z,16.77
2022-12-08T06:19:35.206Z,17.07
2022-12-08T06:22:02.129Z,15.80
2022-12-08T06:24:29.372Z,16.83
2022-12-08T06:26:56.407Z,16.20
2022-12-08T06:29:23.433Z,16.50
2022-12-08T06:31:50.467Z,17.47
2022-12-08T06:34:17.553Z,17.93
2022-12-08T06:36:44.368Z,17.67
2022-12-08T06:39:11.376Z,16.60
2022-12-08T06:41:58.161Z,17.40
2022-12-08T06:44:25.265Z,17.67
2022-12-08T06:46:52.072Z,17.07
2022-12-08T06:49:18.980Z,18.53
2022-12-08T06:51:46.140Z,19.90
2022-12-08T06:54:13.011Z,16.83
2022-12-08T06:56:39.981Z,18.17
2022-12-08T07:01:34.764Z,16.37
2022-12-08T07:04:01.669Z,18.67
2022-12-08T07:06:28.683Z,17.50
2022-12-08T07:08:55.558Z,18.70
2022-12-08T07:11:22.915Z,16.70
2022-12-08T07:13:50.368Z,21.87
2022-12-08T07:16:17.268Z,18.87
2022-12-08T07:18:44.259Z,18.83
2022-12-08T07:21:13.333Z,19.43
2022-12-08T07:23:40.325Z,18.57
2022-12-08T07:26:10.375Z,16.53
2022-12-08T07:28:38.918Z,16.73
2022-12-08T07:31:07.067Z,16.50
2022-12-08T07:33:36.311Z,15.93
2022-12-08T07:36:06.017Z,15.97
2022-12-08T07:38:33.279Z,15.27
2022-12-08T07:41:00.453Z,14.67
2022-12-08T07:43:27.406Z,14.93
2022-12-08T07:45:54.507Z,15.07
2022-12-08T07:48:21.597Z,14.67
2022-12-08T07:50:48.750Z,15.10
2022-12-08T07:53:15.676Z,15.23
2022-12-08T07:55:43.492Z,13.70
2022-12-08T07:58:11.684Z,12.37
2022-12-08T08:00:38.909Z,14.17
2022-12-08T08:03:06.360Z,19.17
2022-12-08T08:05:33.352Z,12.93
2022-12-08T08:08:00.350Z,13.03
2022-12-08T08:10:27.476Z,14.00
2022-12-08T08:12:54.799Z,12.17
2022-12-08T08:15:22.073Z,15.93
2022-12-08T08:17:52.141Z,12.90
2022-12-08T08:20:20.065Z,14.83
2022-12-08T08:22:48.115Z,13.33
2022-12-08T08:25:15.690Z,13.77
2022-12-08T08:27:43.370Z,12.77
2022-12-08T08:30:18.183Z,11.60
2022-12-08T08:32:47.312Z,14.13
2022-12-08T08:35:14.313Z,12.00
2022-12-08T08:37:44.367Z,13.90
2022-12-08T08:40:15.665Z,12.17
2022-12-08T08:42:42.560Z,11.57
2022-12-08T08:45:09.919Z,11.20
2022-12-08T08:47:36.813Z,11.10
2022-12-08T08:50:04.763Z,11.50
2022-12-08T08:52:31.945Z,10.63
2022-12-08T08:54:58.841Z,10.43
2022-12-08T08:57:26.293Z,10.30
2022-12-08T08:59:54.046Z,13.23
2022-12-08T09:02:22.510Z,11.13
2022-12-08T09:04:49.510Z,10.93
2022-12-08T09:07:16.652Z,11.40
2022-12-08T09:09:43.844Z,10.70
2022-12-08T09:12:11.331Z,10.90
2022-12-08T09:14:38.334Z,11.73
2022-12-08T09:17:06.258Z,10.60
2022-12-08T09:19:33.407Z,10.33
2022-12-08T09:22:00.357Z,9.77
2022-12-08T09:24:27.442Z,9.73
2022-12-08T09:26:54.339Z,10.47
2022-12-08T09:29:21.220Z,8.83
2022-12-08T09:36:41.802Z,10.37
2022-12-08T09:39:09.113Z,11.20
2022-12-08T09:41:43.349Z,8.77
2022-12-08T09:44:38.633Z,8.50
2022-12-08T09:47:21.605Z,9.13
2022-12-08T09:50:01.351Z,7.93
2022-12-08T09:52:33.677Z,7.50
2022-12-08T09:55:09.806Z,8.73
2022-12-08T09:57:36.969Z,7.37
2022-12-08T10:00:07.370Z,7.20
2022-12-08T10:02:34.591Z,7.37
2022-12-08T10:05:01.621Z,8.37
2022-12-08T10:07:39.514Z,8.27
2022-12-08T10:10:06.619Z,8.27
2022-12-08T10:12:47.945Z,8.70
2022-12-08T10:15:23.553Z,11.97
2022-12-08T10:17:52.872Z,6.80
2022-12-08T10:20:23.578Z,7.80
2022-12-08T10:23:07.440Z,9.70
2022-12-08T10:25:39.924Z,7.07
2022-12-08T10:28:08.859Z,6.93
2022-12-08T10:30:35.771Z,7.47
2022-12-08T10:33:02.715Z,7.30
2022-12-08T10:35:49.714Z,8.50
2022-12-08T10:38:36.999Z,5.90
2022-12-08T10:41:06.871Z,7.43
2022-12-08T10:43:34.365Z,6.80
2022-12-08T10:46:13.364Z,6.23
2022-12-08T10:48:52.010Z,10.40
2022-12-08T10:51:41.151Z,6.60
2022-12-08T10:54:33.215Z,7.00
2022-12-08T10:57:00.237Z,6.93
2022-12-08T10:59:27.347Z,7.10
2022-12-08T11:01:56.682Z,5.60
2022-12-08T11:04:36.888Z,8.27
2022-12-08T11:07:06.467Z,6.17
2022-12-08T11:09:37.058Z,7.37
2022-12-08T11:12:09.849Z,6.33
2022-12-08T11:14:43.604Z,6.17
2022-12-08T11:17:22.084Z,7.70
2022-12-08T11:20:18.510Z,6.20
2022-12-08T11:22:50.819Z,6.13
2022-12-08T11:25:27.859Z,5.90
2022-12-08T11:27:58.578Z,7.23
2022-12-08T11:30:40.890Z,6.13
2022-12-08T11:33:23.659Z,6.33
2022-12-08T11:36:12.546Z,7.50
2022-12-08T11:38:46.086Z,7.00
2022-12-08T11:41:18.036Z,8.13
2022-12-08T11:43:48.387Z,6.40
2022-12-08T11:46:32.538Z,7.80
2022-12-08T11:49:07.234Z,9.50
2022-12-08T11:52:05.908Z,8.70
2022-12-08T11:54:45.164Z,8.90
2022-12-08T11:57:16.685Z,8.97
2022-12-08T11:59:46.568Z,8.10
2022-12-08T12:02:21.724Z,8.30
2022-12-08T12:05:02.861Z,7.17
2022-12-08T12:07:51.220Z,6.93
2022-12-08T12:10:46.002Z,6.13
2022-12-08T12:13:37.545Z,7.47
2022-12-08T12:16:13.299Z,6.47
2022-12-08T12:18:47.057Z,5.93
2022-12-08T12:21:26.327Z,5.63
2022-12-08T12:24:07.985Z,5.13
2022-12-08T12:26:50.403Z,7.40
2022-12-08T12:29:20.985Z,5.53
2022-12-08T12:31:53.411Z,5.07
2022-12-08T12:34:27.254Z,5.60
2022-12-08T12:37:35.945Z,8.53
2022-12-08T12:40:12.859Z,5.23
2022-12-08T12:42:51.567Z,4.93
2022-12-08T12:45:18.409Z,6.20
2022-12-08T12:47:56.959Z,5.13
2022-12-08T12:50:47.856Z,5.00
2022-12-08T12:53:18.140Z,4.90
2022-12-08T12:55:57.290Z,6.03
2022-12-08T12:58:29.918Z,6.90
2022-12-08T13:01:12.184Z,5.80
2022-12-08T13:03:57.624Z,7.23
2022-12-08T13:06:35.236Z,4.97
2022-12-08T13:09:02.122Z,7.07
2022-12-08T13:11:29.108Z,5.20
2022-12-08T13:14:03.283Z,5.80
2022-12-08T13:16:39.593Z,6.00
2022-12-08T13:19:15.276Z,8.27
2022-12-08T13:21:42.404Z,5.43
2022-12-08T13:24:13.079Z,5.33
2022-12-08T13:27:18.966Z,7.70
2022-12-08T13:30:38.195Z,4.87
2022-12-08T13:33:17.666Z,5.57
2022-12-08T13:35:55.216Z,5.20
2022-12-08T13:38:26.766Z,5.53
2022-12-08T13:40:55.886Z,10.07
2022-12-08T13:44:02.127Z,6.27
2022-12-08T13:58:49.795Z,8.27
2022-12-08T14:01:23.508Z,6.33
2022-12-08T14:04:33.812Z,6.70
2022-12-08T14:06:49.249Z,6.63
2022-12-08T14:09:20.967Z,7.13
2022-12-08T14:11:59.395Z,9.30
2022-12-08T14:17:28.117Z,7.03
2022-12-08T14:20:01.152Z,8.37
2022-12-08T14:22:36.710Z,4.87
2022-12-08T14:25:05.604Z,6.07
2022-12-08T14:27:35.181Z,8.43
2022-12-08T14:30:14.450Z,8.57
2022-12-08T14:32:56.285Z,12.00
2022-12-08T14:35:32.030Z,6.70
2022-12-08T14:38:01.618Z,5.60
2022-12-08T14:40:36.534Z,7.73
2022-12-08T14:43:09.423Z,7.77
2022-12-08T14:45:39.444Z,7.60
2022-12-08T14:48:30.902Z,5.73
2022-12-08T14:51:09.290Z,7.27
2022-12-08T14:53:40.455Z,10.23
2022-12-08T14:56:33.213Z,6.27
2022-12-08T14:59:05.639Z,6.10
2022-12-08T15:01:33.488Z,11.83
2022-12-08T15:04:15.742Z,10.07
2022-12-08T15:07:07.102Z,8.17
2022-12-08T15:09:41.023Z,10.87
2022-12-08T15:12:26.646Z,9.33
2022-12-08T15:15:16.547Z,8.73
2022-12-08T15:17:51.877Z,7.83
2022-12-08T15:20:41.973Z,11.50
2022-12-08T15:23:31.245Z,12.37
2022-12-08T15:25:58.991Z,10.07
2022-12-08T15:28:30.236Z,10.70
2022-12-08T15:30:57.804Z,14.13
2022-12-08T15:35:51.903Z,14.13
2022-12-08T15:38:29.644Z,15.50
2022-12-08T15:40:58.905Z,18.63
2022-12-08T15:43:26.331Z,22.07
2022-12-08T15:45:59.696Z,24.67
2022-12-08T15:48:29.608Z,17.40
2022-12-08T15:50:57.069Z,20.93
2022-12-08T15:58:55.196Z,24.13
2022-12-08T16:01:23.044Z,24.93
2022-12-08T16:07:19.658Z,25.03
2022-12-08T16:09:42.266Z,24.00
2022-12-08T16:15:52.985Z,15.33
2022-12-08T16:18:26.859Z,15.50
2022-12-08T16:23:43.699Z,14.57
2022-12-08T16:26:31.819Z,13.53
2022-12-08T16:29:03.445Z,13.50
2022-12-08T16:31:30.435Z,14.45
2022-12-08T16:33:57.331Z,13.17
2022-12-08T16:36:24.141Z,15.90
2022-12-08T16:38:51.102Z,20.13
2022-12-08T16:41:37.141Z,24.47
2022-12-08T17:04:07.093Z,34.90
2022-12-08T17:06:32.819Z,31.60
2022-12-08T17:08:59.920Z,25.17
2022-12-08T17:11:28.651Z,34.05
2022-12-08T17:13:55.642Z,31.08
2022-12-08T17:16:22.770Z,33.27
2022-12-08T17:18:49.758Z,37.92
2022-12-08T17:21:18.302Z,49.03
2022-12-08T17:23:45.895Z,47.43
2022-12-08T17:26:13.828Z,35.83
2022-12-08T17:28:59.916Z,25.00
2022-12-08T17:31:30.122Z,32.70
2022-12-08T17:34:05.770Z,18.47
2022-12-08T17:36:32.952Z,20.57
2022-12-08T17:39:01.249Z,20.63
2022-12-08T17:41:28.992Z,18.30
2022-12-08T17:43:56.144Z,21.00
2022-12-08T17:46:24.003Z,21.60
2022-12-08T17:48:50.902Z,24.20
2022-12-08T17:51:17.985Z,24.67
2022-12-08T17:53:45.016Z,25.83
2022-12-08T17:56:21.020Z,31.87
2022-12-08T17:58:52.881Z,26.20
2022-12-08T18:01:22.581Z,20.23
2022-12-08T18:03:49.784Z,16.57
2022-12-08T18:06:17.699Z,21.03
2022-12-08T18:08:45.035Z,18.60
2022-12-08T18:11:17.037Z,17.97
2022-12-08T18:13:44.765Z,17.73
2022-12-08T18:16:12.398Z,19.17
2022-12-08T18:18:39.636Z,19.97
2022-12-08T18:21:07.184Z,22.13
2022-12-08T18:23:36.694Z,40.47
2022-12-08T18:28:31.422Z,27.47
2022-12-08T18:30:58.350Z,28.50
2022-12-08T18:33:25.519Z,29.13
2022-12-08T18:35:52.378Z,28.60
2022-12-08T18:38:19.565Z,27.13
2022-12-08T18:40:46.638Z,29.13
2022-12-08T18:43:13.541Z,30.17
2022-12-08T18:45:40.352Z,36.80
2022-12-08T18:48:07.377Z,35.75
2022-12-08T18:50:34.527Z,41.67
2022-12-08T18:53:01.439Z,40.27
2022-12-08T19:00:25.085Z,37.72
2022-12-08T19:02:52.112Z,37.33
2022-12-08T19:05:19.083Z,38.03
2022-12-08T19:07:46.585Z,26.97
2022-12-08T19:15:08.138Z,30.37
2022-12-08T19:17:35.249Z,27.25
2022-12-08T19:20:02.282Z,26.80
2022-12-08T19:22:29.102Z,23.83
2022-12-08T19:27:23.370Z,43.87
2022-12-08T19:29:50.356Z,37.30
2022-12-08T19:32:17.365Z,32.00
2022-12-08T19:34:44.378Z,39.10
2022-12-08T19:37:12.722Z,38.43
2022-12-08T19:39:58.878Z,37.50
2022-12-08T19:42:44.539Z,33.97
2022-12-08T19:45:19.999Z,26.70
2022-12-08T19:47:47.202Z,25.50
2022-12-08T19:50:34.670Z,30.15
2022-12-08T19:53:12.546Z,24.10
2022-12-08T19:55:40.402Z,23.97
2022-12-08T20:07:57.770Z,24.70
2022-12-08T20:10:32.217Z,28.07
2022-12-08T20:13:18.111Z,44.77
2022-12-08T20:15:45.587Z,37.37
2022-12-08T20:18:14.318Z,32.90
2022-12-08T20:20:43.274Z,29.50
2022-12-08T20:23:10.863Z,31.53
2022-12-08T20:25:39.849Z,34.57
2022-12-08T20:28:07.045Z,38.80
2022-12-08T20:30:34.175Z,44.10
2022-12-08T20:33:01.203Z,53.60
2022-12-08T20:35:28.155Z,38.53
2022-12-08T20:37:55.019Z,39.23
2022-12-08T20:40:21.937Z,52.97
2022-12-08T20:42:49.304Z,44.80
2022-12-08T20:45:16.373Z,33.60
2022-12-08T20:47:43.210Z,39.30
2022-12-08T20:50:10.946Z,41.17
2022-12-08T20:52:38.050Z,48.20
2022-12-08T20:55:06.550Z,39.13
2022-12-08T20:57:33.838Z,37.13
2022-12-08T21:00:01.014Z,35.57
2022-12-08T21:02:28.204Z,37.13
2022-12-08T21:04:55.341Z,35.13
2022-12-08T21:07:22.477Z,33.23
2022-12-08T21:09:49.931Z,35.37
2022-12-08T21:12:17.016Z,47.77
2022-12-08T21:14:43.916Z,49.83
2022-12-08T21:17:11.121Z,42.10
2022-12-08T21:19:38.297Z,36.27
2022-12-08T21:22:05.333Z,39.10
2022-12-08T21:24:34.740Z,34.50
2022-12-08T21:27:02.003Z,29.97
2022-12-08T21:29:29.238Z,29.57
2022-12-08T21:32:00.436Z,30.80
2022-12-08T21:34:34.628Z,25.67
2022-12-08T21:37:02.173Z,26.00
2022-12-08T21:39:29.166Z,26.67
2022-12-08T21:42:14.630Z,32.70
2022-12-08T21:44:41.738Z,34.63
2022-12-08T21:47:08.847Z,36.00
2022-12-08T21:49:35.736Z,31.13
2022-12-08T21:52:02.656Z,33.43
2022-12-08T21:54:29.643Z,45.17
2022-12-08T21:56:56.569Z,42.10
2022-12-08T21:59:23.616Z,43.57
2022-12-08T22:01:50.911Z,34.67
2022-12-08T22:04:21.195Z,33.37
2022-12-08T22:06:49.067Z,27.30
2022-12-08T22:09:16.344Z,30.17
2022-12-08T22:11:43.969Z,28.07
2022-12-08T22:14:14.793Z,29.67
2022-12-08T22:16:43.011Z,30.50
2022-12-08T22:19:10.221Z,28.90
2022-12-08T22:21:38.218Z,28.80
2022-12-08T22:24:05.763Z,30.10
2022-12-08T22:26:32.761Z,30.57
2022-12-08T22:29:00.529Z,30.23
2022-12-08T22:31:27.814Z,28.37
2022-12-08T22:33:55.061Z,29.23
2022-12-08T22:36:26.611Z,30.40
2022-12-08T22:38:54.715Z,30.87
2022-12-08T22:41:22.307Z,30.30
2022-12-08T22:43:50.337Z,30.43
2022-12-08T22:46:18.663Z,29.73
2022-12-08T22:48:46.530Z,32.20
2022-12-08T22:51:14.407Z,29.23
2022-12-08T22:53:41.985Z,28.63
2022-12-08T22:56:11.031Z,29.03
2022-12-08T22:58:39.945Z,32.27
2022-12-08T23:01:07.556Z,30.10
2022-12-08T23:03:34.948Z,37.03
2022-12-08T23:06:02.531Z,31.83
2022-12-08T23:08:29.728Z,32.70
2022-12-08T23:10:57.994Z,32.23
2022-12-08T23:13:24.991Z,31.20
2022-12-08T23:15:51.913Z,29.03
2022-12-08T23:18:19.309Z,29.73
2022-12-08T23:20:47.211Z,31.20
2022-12-08T23:23:14.771Z,33.57
2022-12-08T23:25:43.098Z,33.10
2022-12-08T23:28:11.223Z,32.33
2022-12-08T23:30:41.882Z,33.07
2022-12-08T23:33:09.112Z,31.47
2022-12-08T23:35:36.344Z,30.93
2022-12-08T23:38:03.691Z,30.50
2022-12-08T23:40:30.877Z,31.80
2022-12-08T23:42:57.890Z,30.90
2022-12-08T23:45:24.788Z,32.67
2022-12-08T23:47:51.915Z,33.23
2022-12-08T23:50:19.179Z,33.07
2022-12-08T23:52:46.031Z,33.97
2022-12-08T23:55:13.082Z,31.77
2022-12-08T23:57:40.069Z,35.60
